ARN900 CYHZ-CYGR
Flight info
| Callsign | ARN900 |
|---|---|
| Flight time | 0h 30m |
| Altitude | 21000 |
| Route | DCT |
| Aircraft | RJ1H/M-WX/S |
Departure
| Time | 2026-05-05 23:02 |
|---|---|
| Airport | Halifax / Stanfield International Airport (CYHZ) |
Arrival
| Time | 2026-05-05 23:32 |
|---|---|
| Airport | Îles-de-la-Madeleine Airport (CYGR) |
| Time | Latitude | Longitude | Altitude | Speed | Heading |
|---|---|---|---|---|---|
| 2026-05-05 22:54 | 44.88549 | -63.51355 | 451 ft | 0 kts | 269° |
| 2026-05-05 22:57 | 44.88549 | -63.51348 | 451 ft | 3 kts | 269° |
| 2026-05-05 22:57 | 44.88550 | -63.51322 | 451 ft | 3 kts | 269° |
| 2026-05-05 22:57 | 44.88550 | -63.51296 | 451 ft | 3 kts | 269° |
| 2026-05-05 22:58 | 44.88555 | -63.51271 | 451 ft | 3 kts | 231° |
| 2026-05-05 22:58 | 44.88570 | -63.51257 | 451 ft | 3 kts | 188° |
| 2026-05-05 22:58 | 44.88578 | -63.51256 | 451 ft | 0 kts | 185° |
| 2026-05-05 22:58 | 44.88579 | -63.51256 | 451 ft | 0 kts | 185° |
| 2026-05-05 22:59 | 44.88567 | -63.51258 | 451 ft | 5 kts | 184° |
| 2026-05-05 22:59 | 44.88521 | -63.51233 | 451 ft | 11 kts | 157° |
| 2026-05-05 22:59 | 44.88443 | -63.51200 | 451 ft | 11 kts | 170° |
| 2026-05-05 22:59 | 44.88394 | -63.51168 | 451 ft | 5 kts | 122° |
| 2026-05-05 23:00 | 44.88368 | -63.51116 | 451 ft | 0 kts | 124° |
| 2026-05-05 23:00 | 44.88368 | -63.51115 | 451 ft | 1 kts | 124° |
| 2026-05-05 23:00 | 44.88361 | -63.51102 | 451 ft | 6 kts | 124° |
| 2026-05-05 23:01 | 44.88297 | -63.51017 | 449 ft | 14 kts | 194° |
| 2026-05-05 23:01 | 44.88235 | -63.51074 | 449 ft | 8 kts | 217° |
| 2026-05-05 23:01 | 44.87939 | -63.51363 | 462 ft | 97 kts | 215° |
| 2026-05-05 23:01 | 44.87280 | -63.51995 | 1042 ft | 126 kts | 212° |
| 2026-05-05 23:02 | 44.86543 | -63.52714 | 2073 ft | 130 kts | 218° |
| 2026-05-05 23:02 | 44.85789 | -63.53554 | 2969 ft | 150 kts | 231° |
| 2026-05-05 23:02 | 44.85677 | -63.55128 | 4073 ft | 191 kts | 281° |
| 2026-05-05 23:02 | 44.86675 | -63.56655 | 5286 ft | 240 kts | 321° |
| 2026-05-05 23:03 | 44.88414 | -63.57240 | 6550 ft | 278 kts | 355° |
| 2026-05-05 23:03 | 44.90354 | -63.56514 | 7815 ft | 303 kts | 25° |
| 2026-05-05 23:03 | 44.92162 | -63.54942 | 9286 ft | 305 kts | 23° |
| 2026-05-05 23:03 | 44.94083 | -63.53674 | 10632 ft | 308 kts | 19° |
| 2026-05-05 23:04 | 44.96066 | -63.52404 | 11734 ft | 319 kts | 21° |
| 2026-05-05 23:04 | 44.98085 | -63.50996 | 12797 ft | 328 kts | 22° |
| 2026-05-05 23:04 | 45.00136 | -63.49484 | 13796 ft | 336 kts | 24° |
| 2026-05-05 23:04 | 45.02238 | -63.47895 | 14496 ft | 351 kts | 25° |
| 2026-05-05 23:05 | 45.04434 | -63.46190 | 14937 ft | 369 kts | 25° |
| 2026-05-05 23:05 | 45.06729 | -63.44395 | 15268 ft | 385 kts | 25° |
| 2026-05-05 23:05 | 45.09110 | -63.42526 | 15625 ft | 397 kts | 25° |
| 2026-05-05 23:05 | 45.11545 | -63.40625 | 16196 ft | 402 kts | 25° |
| 2026-05-05 23:06 | 45.14019 | -63.38733 | 16783 ft | 406 kts | 25° |
| 2026-05-05 23:06 | 45.16521 | -63.36823 | 17372 ft | 411 kts | 25° |
| 2026-05-05 23:06 | 45.19008 | -63.34899 | 17938 ft | 415 kts | 25° |
| 2026-05-05 23:06 | 45.21581 | -63.32881 | 18481 ft | 419 kts | 25° |
| 2026-05-05 23:07 | 45.24102 | -63.30922 | 19031 ft | 420 kts | 25° |
| 2026-05-05 23:07 | 45.26675 | -63.28943 | 19529 ft | 422 kts | 25° |
| 2026-05-05 23:07 | 45.29267 | -63.26952 | 20041 ft | 425 kts | 25° |
| 2026-05-05 23:07 | 45.31864 | -63.24922 | 20538 ft | 428 kts | 25° |
| 2026-05-05 23:08 | 45.34484 | -63.22863 | 20797 ft | 435 kts | 25° |
| 2026-05-05 23:08 | 45.37122 | -63.20786 | 20893 ft | 425 kts | 25° |
| 2026-05-05 23:08 | 45.39715 | -63.18778 | 20920 ft | 425 kts | 25° |
| 2026-05-05 23:08 | 45.42321 | -63.16772 | 20924 ft | 426 kts | 24° |
| 2026-05-05 23:09 | 45.44933 | -63.14757 | 20926 ft | 427 kts | 25° |
| 2026-05-05 23:09 | 45.47531 | -63.12711 | 20911 ft | 427 kts | 25° |
| 2026-05-05 23:09 | 45.50133 | -63.10647 | 20912 ft | 427 kts | 25° |
| 2026-05-05 23:09 | 45.52738 | -63.08615 | 20909 ft | 427 kts | 25° |
| 2026-05-05 23:10 | 45.55348 | -63.06587 | 20903 ft | 428 kts | 25° |
| 2026-05-05 23:10 | 45.57952 | -63.04524 | 20902 ft | 428 kts | 25° |
| 2026-05-05 23:10 | 45.60557 | -63.02462 | 20906 ft | 428 kts | 25° |
| 2026-05-05 23:10 | 45.63171 | -63.00427 | 20902 ft | 428 kts | 25° |
| 2026-05-05 23:11 | 45.65781 | -62.98374 | 20900 ft | 428 kts | 25° |
| 2026-05-05 23:11 | 45.68388 | -62.96296 | 20902 ft | 430 kts | 25° |
| 2026-05-05 23:11 | 45.71002 | -62.94210 | 20900 ft | 430 kts | 25° |
| 2026-05-05 23:11 | 45.73618 | -62.92157 | 20898 ft | 429 kts | 25° |
| 2026-05-05 23:12 | 45.76242 | -62.90105 | 20907 ft | 430 kts | 25° |
| 2026-05-05 23:12 | 45.78860 | -62.88019 | 20901 ft | 431 kts | 25° |
| 2026-05-05 23:12 | 45.81489 | -62.85950 | 20896 ft | 431 kts | 24° |
| 2026-05-05 23:12 | 45.84113 | -62.83869 | 20889 ft | 431 kts | 25° |
| 2026-05-05 23:13 | 45.86729 | -62.81762 | 20889 ft | 431 kts | 25° |
| 2026-05-05 23:13 | 45.89357 | -62.79681 | 20888 ft | 431 kts | 25° |
| 2026-05-05 23:13 | 45.91985 | -62.77603 | 20880 ft | 432 kts | 25° |
| 2026-05-05 23:13 | 45.94610 | -62.75491 | 20880 ft | 432 kts | 25° |
| 2026-05-05 23:14 | 45.97226 | -62.73386 | 20886 ft | 431 kts | 25° |
| 2026-05-05 23:14 | 45.99852 | -62.71300 | 20877 ft | 431 kts | 24° |
| 2026-05-05 23:14 | 46.02479 | -62.69219 | 20882 ft | 431 kts | 24° |
| 2026-05-05 23:14 | 46.05106 | -62.67139 | 20880 ft | 432 kts | 25° |
| 2026-05-05 23:15 | 46.07726 | -62.65020 | 20876 ft | 432 kts | 25° |
| 2026-05-05 23:15 | 46.10344 | -62.62898 | 20872 ft | 431 kts | 25° |
| 2026-05-05 23:15 | 46.12973 | -62.60808 | 20872 ft | 432 kts | 24° |
| 2026-05-05 23:15 | 46.15598 | -62.58703 | 20873 ft | 432 kts | 25° |
| 2026-05-05 23:16 | 46.18224 | -62.56598 | 20867 ft | 432 kts | 24° |
| 2026-05-05 23:16 | 46.20849 | -62.54495 | 20866 ft | 432 kts | 25° |
| 2026-05-05 23:16 | 46.23462 | -62.52356 | 20872 ft | 432 kts | 25° |
| 2026-05-05 23:16 | 46.26081 | -62.50236 | 20873 ft | 431 kts | 24° |
| 2026-05-05 23:17 | 46.28702 | -62.48134 | 20872 ft | 431 kts | 24° |
| 2026-05-05 23:17 | 46.31292 | -62.46045 | 20874 ft | 432 kts | 25° |
| 2026-05-05 23:17 | 46.33941 | -62.43870 | 20885 ft | 432 kts | 25° |
| 2026-05-05 23:17 | 46.36523 | -62.41776 | 20879 ft | 431 kts | 24° |
| 2026-05-05 23:18 | 46.38290 | -62.40348 | 20877 ft | 431 kts | 24° |
| 2026-05-05 23:18 | 46.40913 | -62.38233 | 20875 ft | 431 kts | 24° |
| 2026-05-05 23:18 | 46.44383 | -62.35424 | 20875 ft | 432 kts | 25° |
| 2026-05-05 23:18 | 46.46993 | -62.33265 | 20873 ft | 432 kts | 25° |
| 2026-05-05 23:19 | 46.49605 | -62.31119 | 20872 ft | 431 kts | 24° |
| 2026-05-05 23:19 | 46.51375 | -62.29687 | 20876 ft | 431 kts | 24° |
| 2026-05-05 23:19 | 46.53992 | -62.27560 | 20870 ft | 431 kts | 24° |
| 2026-05-05 23:19 | 46.56607 | -62.25434 | 20866 ft | 431 kts | 24° |
| 2026-05-05 23:20 | 46.59219 | -62.23307 | 20867 ft | 431 kts | 24° |
| 2026-05-05 23:20 | 46.61826 | -62.21147 | 20868 ft | 431 kts | 25° |
| 2026-05-05 23:20 | 46.64396 | -62.19011 | 20868 ft | 431 kts | 24° |
| 2026-05-05 23:20 | 46.67047 | -62.16845 | 20868 ft | 431 kts | 24° |
| 2026-05-05 23:21 | 46.69626 | -62.14739 | 20877 ft | 431 kts | 24° |
| 2026-05-05 23:21 | 46.72239 | -62.12594 | 20873 ft | 431 kts | 24° |
| 2026-05-05 23:21 | 46.74849 | -62.10453 | 20872 ft | 431 kts | 24° |
| 2026-05-05 23:21 | 46.77455 | -62.08284 | 20869 ft | 431 kts | 25° |
| 2026-05-05 23:22 | 46.80056 | -62.06104 | 20878 ft | 432 kts | 25° |
| 2026-05-05 23:22 | 46.82678 | -62.03946 | 20868 ft | 432 kts | 24° |
| 2026-05-05 23:22 | 46.85291 | -62.01783 | 20862 ft | 432 kts | 25° |
| 2026-05-05 23:22 | 46.87900 | -61.99590 | 20861 ft | 432 kts | 25° |
| 2026-05-05 23:23 | 46.90511 | -61.97423 | 20871 ft | 432 kts | 24° |
| 2026-05-05 23:23 | 46.93122 | -61.95267 | 20872 ft | 431 kts | 24° |
| 2026-05-05 23:23 | 46.95737 | -61.93116 | 20870 ft | 431 kts | 24° |
| 2026-05-05 23:23 | 46.98351 | -61.90947 | 20855 ft | 432 kts | 25° |
| 2026-05-05 23:24 | 47.00952 | -61.88747 | 20857 ft | 432 kts | 25° |
| 2026-05-05 23:24 | 47.03557 | -61.86560 | 20850 ft | 431 kts | 24° |
| 2026-05-05 23:24 | 47.06169 | -61.84399 | 20846 ft | 431 kts | 24° |
| 2026-05-05 23:24 | 47.08774 | -61.82223 | 20871 ft | 432 kts | 24° |
| 2026-05-05 23:25 | 47.11391 | -61.80041 | 20699 ft | 432 kts | 24° |
| 2026-05-05 23:25 | 47.13992 | -61.77846 | 20497 ft | 430 kts | 25° |
| 2026-05-05 23:25 | 47.16567 | -61.75652 | 20288 ft | 420 kts | 25° |
| 2026-05-05 23:25 | 47.19112 | -61.73518 | 19642 ft | 422 kts | 24° |
| 2026-05-05 23:26 | 47.21636 | -61.71413 | 18925 ft | 412 kts | 25° |
| 2026-05-05 23:26 | 47.23990 | -61.69402 | 17725 ft | 366 kts | 25° |
| 2026-05-05 23:26 | 47.26107 | -61.67596 | 16034 ft | 338 kts | 24° |
| 2026-05-05 23:26 | 47.28085 | -61.65922 | 14499 ft | 319 kts | 24° |
| 2026-05-05 23:27 | 47.29972 | -61.64350 | 12954 ft | 305 kts | 22° |
| 2026-05-05 23:27 | 47.31867 | -61.63095 | 11307 ft | 293 kts | 14° |
| 2026-05-05 23:27 | 47.33782 | -61.62349 | 9811 ft | 277 kts | 1° |
| 2026-05-05 23:27 | 47.35662 | -61.62248 | 8129 ft | 265 kts | 348° |
| 2026-05-05 23:28 | 47.37464 | -61.62621 | 6522 ft | 256 kts | 337° |
| 2026-05-05 23:28 | 47.39088 | -61.63369 | 5376 ft | 233 kts | 325° |
| 2026-05-05 23:28 | 47.40592 | -61.64500 | 4566 ft | 240 kts | 319° |
| 2026-05-05 23:28 | 47.42006 | -61.65658 | 4116 ft | 225 kts | 319° |
| 2026-05-05 23:29 | 47.43295 | -61.66670 | 3853 ft | 192 kts | 318° |
| 2026-05-05 23:29 | 47.44260 | -61.67705 | 3374 ft | 154 kts | 293° |
| 2026-05-05 23:29 | 47.44727 | -61.68995 | 2874 ft | 133 kts | 272° |
| 2026-05-05 23:29 | 47.44876 | -61.70233 | 2500 ft | 119 kts | 261° |
| 2026-05-05 23:30 | 47.44909 | -61.71421 | 2122 ft | 116 kts | 254° |
| 2026-05-05 23:30 | 47.44870 | -61.72577 | 1581 ft | 111 kts | 250° |
| 2026-05-05 23:30 | 47.44719 | -61.73642 | 1047 ft | 102 kts | 236° |
| 2026-05-05 23:30 | 47.44342 | -61.74447 | 727 ft | 94 kts | 224° |
| 2026-05-05 23:31 | 47.43903 | -61.75218 | 463 ft | 103 kts | 224° |
| 2026-05-05 23:31 | 47.43451 | -61.76083 | 294 ft | 105 kts | 227° |
| 2026-05-05 23:31 | 47.43034 | -61.76892 | 121 ft | 93 kts | 224° |
| 2026-05-05 23:31 | 47.42665 | -61.77585 | 29 ft | 79 kts | 231° |
| 2026-05-05 23:32 | 47.42440 | -61.78027 | 32 ft | 18 kts | 233° |
| 2026-05-05 23:32 | 47.42422 | -61.78086 | 32 ft | 2 kts | 208° |
| 2026-05-05 23:32 | 47.42423 | -61.78066 | 32 ft | 5 kts | 51° |
| 2026-05-05 23:32 | 47.42481 | -61.77962 | 29 ft | 18 kts | 51° |
| 2026-05-05 23:33 | 47.42555 | -61.77796 | 27 ft | 20 kts | 77° |
| 2026-05-05 23:33 | 47.42479 | -61.77644 | 29 ft | 19 kts | 138° |
| 2026-05-05 23:33 | 47.42430 | -61.77554 | 32 ft | 0 kts | 94° |